createdAt,value
2023-03-01T00:00:01.254Z,49.00
2023-03-01T00:02:27.953Z,48.94
2023-03-01T00:04:54.475Z,48.84
2023-03-01T00:07:21.172Z,48.69
2023-03-01T00:09:47.658Z,48.90
2023-03-01T00:12:14.240Z,49.06
2023-03-01T00:14:40.943Z,49.03
2023-03-01T00:17:07.644Z,48.39
2023-03-01T00:19:34.322Z,48.82
2023-03-01T00:22:00.888Z,49.13
2023-03-01T00:24:27.475Z,49.63
2023-03-01T00:26:56.543Z,49.39
2023-03-01T00:29:25.304Z,49.31
2023-03-01T00:31:52.383Z,49.03
2023-03-01T00:34:19.038Z,48.97
2023-03-01T00:36:45.720Z,48.17
2023-03-01T00:39:15.711Z,48.21
2023-03-01T00:41:43.672Z,48.39
2023-03-01T00:44:10.696Z,48.71
2023-03-01T00:46:37.435Z,48.58
2023-03-01T00:49:05.494Z,48.69
2023-03-01T00:51:32.159Z,49.07
2023-03-01T00:54:01.223Z,49.08
2023-03-01T00:56:28.821Z,49.73
2023-03-01T00:58:55.629Z,49.86
2023-03-01T01:01:25.100Z,50.11
2023-03-01T01:03:54.328Z,49.77
2023-03-01T01:06:23.779Z,49.63
2023-03-01T01:08:51.860Z,50.04
2023-03-01T01:11:18.718Z,50.13
2023-03-01T01:13:47.204Z,49.35
2023-03-01T01:16:14.790Z,49.78
2023-03-01T01:18:42.155Z,49.93
2023-03-01T01:21:11.432Z,49.93
2023-03-01T01:23:40.748Z,49.20
2023-03-01T01:26:16.601Z,50.24
2023-03-01T01:28:43.714Z,50.33
2023-03-01T01:31:10.479Z,50.16
2023-03-01T01:33:38.313Z,49.84
2023-03-01T01:36:09.222Z,49.13
2023-03-01T01:38:37.452Z,49.37
2023-03-01T01:41:04.970Z,49.64
2023-03-01T01:43:35.258Z,48.91
2023-03-01T01:46:20.430Z,48.89
2023-03-01T01:49:15.917Z,49.96
2023-03-01T01:51:47.128Z,49.63
2023-03-01T01:54:19.398Z,49.18
2023-03-01T01:56:54.113Z,49.47
2023-03-01T01:59:25.313Z,49.19
2023-03-01T02:01:53.653Z,48.93
2023-03-01T02:04:20.704Z,48.71
2023-03-01T02:06:55.147Z,48.36
2023-03-01T02:09:23.999Z,49.70
2023-03-01T02:11:52.076Z,49.58
2023-03-01T02:14:18.950Z,49.48
2023-03-01T02:16:45.616Z,48.97
2023-03-01T02:19:32.168Z,49.38
2023-03-01T02:22:24.494Z,49.95
2023-03-01T02:25:10.135Z,49.57
2023-03-01T02:27:49.795Z,49.52
2023-03-01T02:30:16.937Z,49.68
2023-03-01T02:32:44.566Z,49.92
2023-03-01T02:35:14.451Z,49.59
2023-03-01T02:37:43.406Z,49.59
2023-03-01T02:40:14.104Z,49.25
2023-03-01T02:42:54.657Z,49.18
2023-03-01T02:45:22.105Z,49.06
2023-03-01T02:47:48.825Z,48.63
2023-03-01T02:50:23.644Z,49.36
2023-03-01T02:53:09.021Z,49.10
2023-03-01T02:55:35.725Z,48.96
2023-03-01T02:58:04.365Z,49.58
2023-03-01T03:00:40.932Z,49.27
2023-03-01T03:03:08.000Z,49.04
2023-03-01T03:05:34.606Z,49.26
2023-03-01T03:08:03.335Z,49.87
2023-03-01T03:10:40.491Z,49.99
2023-03-01T03:13:11.389Z,50.38
2023-03-01T03:15:39.422Z,49.88
2023-03-01T03:18:09.405Z,49.57
2023-03-01T03:20:37.206Z,51.01
2023-03-01T03:23:03.794Z,51.34
2023-03-01T03:25:30.736Z,51.06
2023-03-01T03:27:57.972Z,51.06
2023-03-01T03:30:27.618Z,50.77
2023-03-01T03:32:54.527Z,50.77
2023-03-01T03:35:30.940Z,50.59
2023-03-01T03:38:03.586Z,51.05
2023-03-01T03:40:39.799Z,50.92
2023-03-01T03:43:14.943Z,51.48
2023-03-01T03:45:41.853Z,51.08
2023-03-01T03:48:10.602Z,51.34
2023-03-01T03:50:38.425Z,51.75
2023-03-01T03:53:08.719Z,51.17
2023-03-01T03:55:36.196Z,51.93
2023-03-01T03:58:07.632Z,51.08
2023-03-01T04:00:40.649Z,51.86
2023-03-01T04:03:07.936Z,51.53
2023-03-01T04:05:34.791Z,51.68
2023-03-01T04:08:07.918Z,51.11
2023-03-01T04:10:38.327Z,51.30
2023-03-01T04:13:06.867Z,50.95
2023-03-01T04:15:34.026Z,51.41
2023-03-01T04:18:01.195Z,51.08
2023-03-01T04:20:34.501Z,51.07
2023-03-01T04:23:11.558Z,50.42
2023-03-01T04:25:42.297Z,50.83
2023-03-01T04:28:10.446Z,51.09
2023-03-01T04:30:38.454Z,51.05
2023-03-01T04:33:09.846Z,51.81
2023-03-01T04:35:37.698Z,52.42
2023-03-01T04:38:06.037Z,52.04
2023-03-01T04:40:33.084Z,52.18
2023-03-01T04:42:59.672Z,52.07
2023-03-01T04:45:26.339Z,51.78
2023-03-01T04:47:55.710Z,52.08
2023-03-01T04:50:24.303Z,51.72
2023-03-01T04:52:50.823Z,52.02
2023-03-01T04:55:17.446Z,52.21
2023-03-01T04:57:44.362Z,51.99
2023-03-01T05:00:21.956Z,51.73
2023-03-01T05:02:54.617Z,52.06
2023-03-01T05:05:26.972Z,51.40
2023-03-01T05:07:55.008Z,51.43
2023-03-01T05:10:22.056Z,50.84
2023-03-01T05:12:48.715Z,51.11
2023-03-01T05:15:15.706Z,51.17
2023-03-01T05:17:42.913Z,50.69
2023-03-01T05:20:11.024Z,51.08
2023-03-01T05:22:37.674Z,51.33
2023-03-01T05:25:05.087Z,51.81
2023-03-01T05:27:31.911Z,51.98
2023-03-01T05:29:58.416Z,52.44
2023-03-01T05:32:25.193Z,51.55
2023-03-01T05:34:53.032Z,51.09
2023-03-01T05:37:20.399Z,51.93
2023-03-01T05:39:48.105Z,51.05
2023-03-01T05:42:15.480Z,51.33
2023-03-01T05:44:42.010Z,51.58
2023-03-01T05:47:08.593Z,52.71
2023-03-01T05:49:35.886Z,53.15
2023-03-01T05:52:03.216Z,52.33
2023-03-01T05:54:29.749Z,51.55
2023-03-01T05:56:57.149Z,52.27
2023-03-01T05:59:23.660Z,52.17
2023-03-01T06:01:50.885Z,52.43
2023-03-01T06:04:17.444Z,50.92
2023-03-01T06:06:44.076Z,51.30
2023-03-01T06:09:10.947Z,51.92
2023-03-01T06:11:38.223Z,51.39
2023-03-01T06:14:07.302Z,51.17
2023-03-01T06:16:33.930Z,51.33
2023-03-01T06:19:00.442Z,52.57
2023-03-01T06:21:27.058Z,52.38
2023-03-01T06:23:53.544Z,52.41
2023-03-01T06:26:20.274Z,52.66
2023-03-01T06:28:47.022Z,53.01
2023-03-01T06:31:13.720Z,52.70
2023-03-01T06:33:40.526Z,52.73
2023-03-01T06:36:08.177Z,52.40
2023-03-01T06:38:34.969Z,53.17
2023-03-01T06:41:02.189Z,52.75
2023-03-01T06:43:28.887Z,52.49
2023-03-01T06:45:55.688Z,52.70
2023-03-01T06:48:22.208Z,52.72
2023-03-01T06:50:48.831Z,52.98
2023-03-01T06:53:15.375Z,52.76
2023-03-01T06:55:42.086Z,52.00
2023-03-01T06:58:09.883Z,52.66
2023-03-01T07:00:36.431Z,52.26
2023-03-01T07:03:03.418Z,51.69
2023-03-01T07:05:31.209Z,51.65
2023-03-01T07:07:58.045Z,51.31
2023-03-01T07:10:24.995Z,51.53
2023-03-01T07:12:54.807Z,51.55
2023-03-01T07:15:21.319Z,51.70
2023-03-01T07:17:50.816Z,51.76
2023-03-01T07:20:18.808Z,51.95
2023-03-01T07:22:45.421Z,51.81
2023-03-01T07:25:12.159Z,52.53
2023-03-01T07:27:38.819Z,52.09
2023-03-01T07:30:06.083Z,52.47
2023-03-01T07:32:32.688Z,52.42
2023-03-01T07:34:59.294Z,52.07
2023-03-01T07:37:25.765Z,52.52
2023-03-01T07:39:52.360Z,52.49
2023-03-01T07:42:18.919Z,52.24
2023-03-01T07:44:45.469Z,53.30
2023-03-01T07:47:12.094Z,53.53
2023-03-01T07:49:38.765Z,53.13
2023-03-01T07:52:05.286Z,53.31
2023-03-01T07:54:31.938Z,52.75
2023-03-01T07:56:58.586Z,52.91
2023-03-01T08:04:20.669Z,53.47
2023-03-01T08:06:47.828Z,52.89
2023-03-01T08:09:14.307Z,53.19
2023-03-01T08:11:40.907Z,52.35
2023-03-01T08:14:07.638Z,52.74
2023-03-01T08:16:36.214Z,52.44
2023-03-01T08:19:11.494Z,52.67
2023-03-01T08:21:38.691Z,52.11
2023-03-01T08:24:06.951Z,51.90
2023-03-01T08:26:34.626Z,51.75
2023-03-01T08:29:02.103Z,51.82
2023-03-01T08:31:36.555Z,51.41
2023-03-01T08:34:06.712Z,51.64
2023-03-01T08:36:39.201Z,50.97
2023-03-01T08:39:06.594Z,50.90
2023-03-01T08:41:33.469Z,50.70
2023-03-01T08:44:00.195Z,50.53
2023-03-01T08:46:34.258Z,50.72
2023-03-01T08:49:01.223Z,51.24
2023-03-01T08:51:27.886Z,50.62
2023-03-01T08:53:54.930Z,51.00
2023-03-01T08:56:25.112Z,50.90
2023-03-01T08:58:51.755Z,50.95
2023-03-01T09:01:19.911Z,51.03
2023-03-01T09:03:47.134Z,50.90
2023-03-01T09:06:14.924Z,50.43
2023-03-01T09:08:47.555Z,50.34
2023-03-01T09:11:17.639Z,51.02
2023-03-01T09:13:45.676Z,49.84
2023-03-01T09:16:15.136Z,49.90
2023-03-01T09:18:42.192Z,49.99
2023-03-01T09:21:11.975Z,49.74
2023-03-01T09:23:40.865Z,49.64
2023-03-01T09:26:09.828Z,50.07
2023-03-01T09:28:37.280Z,49.36
2023-03-01T09:31:05.178Z,49.71
2023-03-01T09:33:33.816Z,49.03
2023-03-01T09:36:02.208Z,49.52
2023-03-01T09:38:29.116Z,49.18
2023-03-01T09:40:55.922Z,48.90
2023-03-01T09:43:46.692Z,48.76
2023-03-01T09:46:17.482Z,49.69
2023-03-01T09:48:51.492Z,49.35
2023-03-01T09:51:30.187Z,48.92
2023-03-01T09:53:59.445Z,48.32
2023-03-01T09:56:34.429Z,49.22
2023-03-01T09:59:20.484Z,49.13
2023-03-01T10:01:57.514Z,48.51
2023-03-01T10:04:34.920Z,48.85
2023-03-01T10:07:24.001Z,48.18
2023-03-01T10:09:50.884Z,48.09
2023-03-01T10:12:21.600Z,47.32
2023-03-01T10:15:05.233Z,47.51
2023-03-01T10:17:49.422Z,46.78
2023-03-01T10:20:26.510Z,46.95
2023-03-01T10:22:55.992Z,46.97
2023-03-01T10:25:25.570Z,45.43
2023-03-01T10:28:00.919Z,44.35
2023-03-01T10:30:30.492Z,42.95
2023-03-01T10:32:58.288Z,44.14
2023-03-01T10:35:28.574Z,44.03
2023-03-01T10:38:08.022Z,42.63
2023-03-01T10:40:36.880Z,43.21
2023-03-01T10:43:05.972Z,42.90
2023-03-01T10:45:38.168Z,43.00
2023-03-01T10:48:27.077Z,42.75
2023-03-01T10:50:59.685Z,43.28
2023-03-01T10:53:48.790Z,42.82
2023-03-01T10:56:16.397Z,42.19
2023-03-01T10:59:03.108Z,42.29
2023-03-01T11:01:37.003Z,42.98
2023-03-01T11:04:06.838Z,42.61
2023-03-01T11:06:44.769Z,42.72
2023-03-01T11:09:23.462Z,43.33
2023-03-01T11:11:55.190Z,43.24
2023-03-01T11:14:28.372Z,42.13
2023-03-01T11:17:05.280Z,43.04
2023-03-01T11:19:33.281Z,43.41
2023-03-01T11:22:22.542Z,43.45
2023-03-01T11:25:08.561Z,42.50
2023-03-01T11:27:41.696Z,42.32
2023-03-01T11:30:36.437Z,42.92
2023-03-01T11:33:08.821Z,43.43
2023-03-01T11:35:39.876Z,43.60
2023-03-01T11:38:24.826Z,42.81
2023-03-01T11:41:13.046Z,42.86
2023-03-01T11:43:42.628Z,42.04
2023-03-01T11:46:36.048Z,41.90
2023-03-01T11:49:28.664Z,43.08
2023-03-01T11:52:03.068Z,42.20
2023-03-01T11:54:54.434Z,41.66
2023-03-01T11:57:43.369Z,42.69
2023-03-01T12:00:13.853Z,42.23
2023-03-01T12:02:52.173Z,42.43
2023-03-01T12:05:26.512Z,42.39
2023-03-01T12:08:09.054Z,41.33
2023-03-01T12:11:09.901Z,41.27
2023-03-01T12:14:04.450Z,42.12
2023-03-01T12:16:41.019Z,41.21
2023-03-01T12:19:38.669Z,40.43
2023-03-01T12:22:38.954Z,39.92
2023-03-01T12:25:21.673Z,39.92
2023-03-01T12:28:10.021Z,39.94
2023-03-01T12:30:39.193Z,39.52
2023-03-01T12:33:46.122Z,39.87
2023-03-01T12:36:49.880Z,40.97
2023-03-01T12:39:40.920Z,40.22
2023-03-01T12:42:28.216Z,39.12
2023-03-01T12:45:12.983Z,40.08
2023-03-01T12:47:57.314Z,40.33
2023-03-01T12:50:27.328Z,40.55
2023-03-01T12:52:58.496Z,39.48
2023-03-01T12:55:38.832Z,39.77
2023-03-01T12:58:49.810Z,39.85
2023-03-01T13:01:28.340Z,39.89
2023-03-01T13:04:11.842Z,40.65
2023-03-01T13:06:49.237Z,40.22
2023-03-01T13:09:46.540Z,39.47
2023-03-01T13:12:50.288Z,39.64
2023-03-01T13:15:22.762Z,40.14
2023-03-01T13:18:01.677Z,39.87
2023-03-01T13:20:43.354Z,40.27
2023-03-01T13:23:22.245Z,39.90
2023-03-01T13:25:58.487Z,41.05
2023-03-01T13:28:50.163Z,40.19
2023-03-01T13:31:16.656Z,39.52
2023-03-01T13:33:47.297Z,39.07
2023-03-01T13:36:30.176Z,40.13
2023-03-01T13:39:06.278Z,39.65
2023-03-01T13:41:41.859Z,40.73
2023-03-01T13:44:23.674Z,40.44
2023-03-01T13:46:52.793Z,40.07
2023-03-01T13:49:23.533Z,39.32
2023-03-01T13:51:51.976Z,39.71
2023-03-01T13:54:31.958Z,40.60
2023-03-01T13:57:02.228Z,40.35
2023-03-01T13:59:31.013Z,41.16
2023-03-01T14:02:00.510Z,39.80
2023-03-01T14:04:36.542Z,39.75
2023-03-01T14:07:17.724Z,38.96
2023-03-01T14:09:46.754Z,39.57
2023-03-01T14:12:40.968Z,39.79
2023-03-01T14:15:19.199Z,40.58
2023-03-01T14:17:55.725Z,39.03
2023-03-01T14:20:33.177Z,39.75
2023-03-01T14:23:10.009Z,39.70
2023-03-01T14:25:39.288Z,39.18
2023-03-01T14:28:06.282Z,38.98
2023-03-01T14:30:43.117Z,39.45
2023-03-01T14:33:42.106Z,39.74
2023-03-01T14:36:14.277Z,40.25
2023-03-01T14:38:48.305Z,38.78
2023-03-01T14:41:24.546Z,38.21
2023-03-01T14:44:00.686Z,38.63
2023-03-01T14:46:33.050Z,38.88
2023-03-01T14:49:24.033Z,38.50
2023-03-01T14:52:07.195Z,39.10
2023-03-01T14:54:49.212Z,38.82
2023-03-01T14:57:19.782Z,39.55
2023-03-01T14:59:48.614Z,38.85
2023-03-01T15:02:20.146Z,39.04
2023-03-01T15:04:50.254Z,39.64
2023-03-01T15:07:17.450Z,38.62
2023-03-01T15:09:44.939Z,39.30
2023-03-01T15:12:29.519Z,39.48
2023-03-01T15:15:04.400Z,39.22
2023-03-01T15:17:35.195Z,39.60
2023-03-01T15:20:26.624Z,39.79
2023-03-01T15:22:55.241Z,39.86
2023-03-01T15:25:25.368Z,40.35
2023-03-01T15:27:55.036Z,40.90
2023-03-01T15:30:25.743Z,40.02
2023-03-01T15:33:22.075Z,40.27
2023-03-01T15:35:54.974Z,40.08
2023-03-01T15:38:51.775Z,39.99
2023-03-01T15:41:49.303Z,39.89
2023-03-01T15:44:34.881Z,40.10
2023-03-01T15:47:29.898Z,40.70
2023-03-01T15:49:59.000Z,41.13
2023-03-01T15:52:37.612Z,40.64
2023-03-01T15:55:07.370Z,40.63
2023-03-01T15:57:33.987Z,41.43
2023-03-01T16:00:00.540Z,40.39
2023-03-01T16:02:27.193Z,39.87
2023-03-01T16:04:54.733Z,40.45
2023-03-01T16:07:21.302Z,39.63
2023-03-01T16:09:47.806Z,39.46
2023-03-01T16:12:16.041Z,40.06
2023-03-01T16:14:42.635Z,40.01
2023-03-01T16:17:11.031Z,39.84
2023-03-01T16:19:38.720Z,39.76
2023-03-01T16:22:05.842Z,39.75
2023-03-01T16:24:32.579Z,39.28
2023-03-01T16:26:59.182Z,39.46
2023-03-01T16:29:25.793Z,39.60
2023-03-01T16:31:52.378Z,39.30
2023-03-01T16:34:19.081Z,39.54
2023-03-01T16:36:45.561Z,40.07
2023-03-01T16:39:12.214Z,40.36
2023-03-01T16:41:38.719Z,39.72
2023-03-01T16:44:05.392Z,40.22
2023-03-01T16:46:31.937Z,40.68
2023-03-01T16:48:58.549Z,40.75
2023-03-01T16:51:25.847Z,40.73
2023-03-01T16:53:52.951Z,41.21
2023-03-01T16:56:20.020Z,41.00
2023-03-01T16:58:46.930Z,40.39
2023-03-01T17:01:15.048Z,41.25
2023-03-01T17:03:42.061Z,40.92
2023-03-01T17:06:14.490Z,41.54
2023-03-01T17:08:41.651Z,41.47
2023-03-01T17:11:11.440Z,41.29
2023-03-01T17:13:38.937Z,41.93
2023-03-01T17:16:08.024Z,41.58
2023-03-01T17:18:34.772Z,41.52
2023-03-01T17:21:01.908Z,41.59
2023-03-01T17:23:29.782Z,41.27
2023-03-01T17:25:56.521Z,41.65
2023-03-01T17:28:24.800Z,41.43
2023-03-01T17:30:51.673Z,41.75
2023-03-01T17:33:19.446Z,41.95
2023-03-01T17:35:47.397Z,42.10
2023-03-01T17:38:17.572Z,42.31
2023-03-01T17:40:48.010Z,42.22
2023-03-01T17:43:16.786Z,42.39
2023-03-01T17:45:48.369Z,42.50
2023-03-01T17:48:16.788Z,42.55
2023-03-01T17:50:43.832Z,42.56
2023-03-01T17:53:11.602Z,42.35
2023-03-01T17:55:39.792Z,41.84
2023-03-01T17:58:07.912Z,42.15
2023-03-01T18:00:35.466Z,41.82
2023-03-01T18:03:02.227Z,42.00
2023-03-01T18:05:35.884Z,42.17
2023-03-01T18:08:02.475Z,42.67
2023-03-01T18:10:29.263Z,42.96
2023-03-01T18:12:55.840Z,43.22
2023-03-01T18:15:22.417Z,42.96
2023-03-01T18:17:49.274Z,43.35
2023-03-01T18:20:16.005Z,42.66
2023-03-01T18:22:42.826Z,42.83
2023-03-01T18:25:09.697Z,42.63
2023-03-01T18:27:36.953Z,43.06
2023-03-01T18:30:08.566Z,42.89
2023-03-01T18:32:35.244Z,42.91
2023-03-01T18:35:01.829Z,43.11
2023-03-01T18:37:28.425Z,42.73
2023-03-01T18:39:54.970Z,42.87
2023-03-01T18:42:22.026Z,43.08
2023-03-01T18:44:49.328Z,43.08
2023-03-01T18:47:17.005Z,43.14
2023-03-01T18:49:44.235Z,43.47
2023-03-01T18:52:11.149Z,43.16
2023-03-01T18:54:37.952Z,42.95
2023-03-01T18:57:04.774Z,42.69
2023-03-01T18:59:31.554Z,42.90
2023-03-01T19:01:58.275Z,43.37
2023-03-01T19:04:25.068Z,42.87
2023-03-01T19:06:51.641Z,43.20
2023-03-01T19:09:18.182Z,43.77
2023-03-01T19:11:44.708Z,43.95
2023-03-01T19:14:11.306Z,43.33
2023-03-01T19:16:37.965Z,43.64
2023-03-01T19:19:06.015Z,43.71
2023-03-01T19:21:33.494Z,43.72
2023-03-01T19:24:02.244Z,43.15
2023-03-01T19:26:29.851Z,43.74
2023-03-01T19:28:57.147Z,43.57
2023-03-01T19:31:27.037Z,43.31
2023-03-01T19:33:59.403Z,44.21
2023-03-01T19:36:35.302Z,44.13
2023-03-01T19:39:06.646Z,44.30
2023-03-01T19:41:33.629Z,44.09
2023-03-01T19:44:04.417Z,43.93
2023-03-01T19:46:32.535Z,43.59
2023-03-01T19:49:00.384Z,44.63
2023-03-01T19:51:27.725Z,45.16
2023-03-01T19:53:54.892Z,44.83
2023-03-01T19:56:21.537Z,45.42
2023-03-01T19:58:50.118Z,44.90
2023-03-01T20:01:19.445Z,45.16
2023-03-01T20:03:47.226Z,44.40
2023-03-01T20:06:17.392Z,44.22
2023-03-01T20:08:44.598Z,44.25
2023-03-01T20:11:13.555Z,45.14
2023-03-01T20:13:40.330Z,44.86
2023-03-01T20:16:07.293Z,45.13
2023-03-01T20:18:33.939Z,45.30
2023-03-01T20:21:01.806Z,44.80
2023-03-01T20:23:29.524Z,45.46
2023-03-01T20:26:23.056Z,45.02
2023-03-01T20:28:52.201Z,45.06
2023-03-01T20:31:21.102Z,45.04
2023-03-01T20:33:48.278Z,45.16
2023-03-01T20:36:15.494Z,45.35
2023-03-01T20:38:42.077Z,44.93
2023-03-01T20:41:11.424Z,45.90
2023-03-01T20:43:38.670Z,45.76
2023-03-01T20:46:06.709Z,45.28
2023-03-01T20:48:33.870Z,45.56
2023-03-01T20:51:05.101Z,45.67
2023-03-01T20:53:31.674Z,45.67
2023-03-01T20:56:03.496Z,45.56
2023-03-01T20:58:34.469Z,45.45
2023-03-01T21:01:02.111Z,45.55
2023-03-01T21:03:29.132Z,45.70
2023-03-01T21:06:01.971Z,45.70
2023-03-01T21:08:29.445Z,45.34
2023-03-01T21:10:57.234Z,45.22
2023-03-01T21:13:25.318Z,45.48
2023-03-01T21:15:56.176Z,45.46
2023-03-01T21:18:23.253Z,45.22
2023-03-01T21:20:49.727Z,45.14
2023-03-01T21:23:19.219Z,45.53
2023-03-01T21:25:45.806Z,45.42
2023-03-01T21:28:12.361Z,45.46
2023-03-01T21:30:38.938Z,45.69
2023-03-01T21:33:05.454Z,45.77
2023-03-01T21:35:32.093Z,45.53
2023-03-01T21:37:58.701Z,45.58
2023-03-01T21:40:25.173Z,45.26
2023-03-01T21:42:51.837Z,45.33
2023-03-01T21:45:18.317Z,45.27
2023-03-01T21:47:44.985Z,45.67
2023-03-01T21:50:11.815Z,46.00
2023-03-01T21:52:38.425Z,45.47
2023-03-01T21:55:05.266Z,45.57
2023-03-01T21:57:31.925Z,45.92
2023-03-01T21:59:58.405Z,45.83
2023-03-01T22:02:25.191Z,46.17
2023-03-01T22:04:57.502Z,45.98
2023-03-01T22:07:24.192Z,45.89
2023-03-01T22:09:50.781Z,45.77
2023-03-01T22:12:17.335Z,46.00
2023-03-01T22:14:43.890Z,45.77
2023-03-01T22:17:10.485Z,45.81
2023-03-01T22:19:37.079Z,45.98
2023-03-01T22:22:04.134Z,45.38
2023-03-01T22:24:30.807Z,45.85
2023-03-01T22:26:57.550Z,45.90
2023-03-01T22:29:29.285Z,46.03
2023-03-01T22:31:57.472Z,46.04
2023-03-01T22:34:24.286Z,46.28
2023-03-01T22:36:51.380Z,46.37
2023-03-01T22:39:19.784Z,46.46
2023-03-01T22:41:47.565Z,46.38
2023-03-01T22:44:17.291Z,46.65
2023-03-01T22:46:44.865Z,46.49
2023-03-01T22:49:11.788Z,46.65
2023-03-01T22:51:40.287Z,46.90
2023-03-01T22:54:07.959Z,47.19
2023-03-01T22:56:36.794Z,47.32
2023-03-01T22:59:10.093Z,46.85
2023-03-01T23:01:38.541Z,46.93
2023-03-01T23:04:05.524Z,46.45
2023-03-01T23:06:33.395Z,46.25
2023-03-01T23:09:01.835Z,46.53
2023-03-01T23:11:29.289Z,46.57
2023-03-01T23:13:55.929Z,46.35
2023-03-01T23:16:29.627Z,46.31
2023-03-01T23:18:58.929Z,46.41
2023-03-01T23:21:26.305Z,46.49
2023-03-01T23:23:55.012Z,46.58
2023-03-01T23:26:22.266Z,46.12
2023-03-01T23:28:50.726Z,46.58
2023-03-01T23:31:17.997Z,46.91
2023-03-01T23:33:45.867Z,46.96
2023-03-01T23:36:19.798Z,47.39
2023-03-01T23:38:48.036Z,47.49
2023-03-01T23:41:17.477Z,47.57
2023-03-01T23:43:45.884Z,47.72
2023-03-01T23:46:14.353Z,47.71
2023-03-01T23:48:42.436Z,47.42
2023-03-01T23:51:09.312Z,46.91
2023-03-01T23:53:53.885Z,47.34
2023-03-01T23:56:29.168Z,47.54
2023-03-01T23:58:56.621Z,47.13
